Time;durP1;ratioP1;P1;durP2;ratioP2;P2;SDS_P1;SDS_P2;PMS_P1;PMS_P2;Temp;Humidity;BMP_temperature;BMP_pressure;BME280_temperature;BME280_humidity;BME280_pressure;Samples;Min_cycle;Max_cycle;Signal;HPM_P1;HPM_P2
2023/01/27 00:00:02;;;;;;;280.33;28.83;;;5.80;67.50;;;;;;5041122;28;20056;-46
2023/01/27 00:02:29;;;;;;;56.28;24.13;;;5.80;67.60;;;;;;5044381;28;20056;-49
2023/01/27 00:04:56;;;;;;;53.85;25.58;;;5.90;67.60;;;;;;5042218;28;20528;-53
2023/01/27 00:07:25;;;;;;;252.38;28.77;;;5.90;67.50;;;;;;5042461;28;20060;-48
2023/01/27 00:09:52;;;;;;;295.02;31.05;;;5.80;67.50;;;;;;5041599;28;20063;-50
2023/01/27 00:15:08;;;;;;;65.85;24.55;;;5.90;67.40;;;;;;5042874;28;20132;-49
2023/01/27 00:17:36;;;;;;;117.90;25.55;;;5.90;67.30;;;;;;5043061;28;20056;-51
2023/01/27 00:20:04;;;;;;;418.73;33.80;;;5.90;67.30;;;;;;5042578;28;20068;-50
2023/01/27 00:25:18;;;;;;;181.07;27.30;;;5.90;67.60;;;;;;5045346;28;20059;-49
2023/01/27 00:27:46;;;;;;;87.57;26.08;;;5.90;67.30;;;;;;5039671;28;20052;-51
2023/01/27 00:30:13;;;;;;;406.50;34.03;;;5.90;67.30;;;;;;5041730;28;20065;-48
2023/01/27 00:35:25;;;;;;;141.32;29.60;;;5.90;67.30;;;;;;5047742;28;20397;-46
2023/01/27 00:37:54;;;;;;;79.57;26.15;;;5.90;67.30;;;;;;5041538;28;20057;-49
2023/01/27 00:40:21;;;;;;;95.05;26.38;;;5.90;67.40;;;;;;5040525;28;20080;-51
2023/01/27 00:42:48;;;;;;;72.25;26.63;;;5.90;67.40;;;;;;5037616;28;20056;-48
2023/01/27 00:48:00;;;;;;;61.47;24.58;;;5.90;67.60;;;;;;5048947;28;20409;-50
2023/01/27 00:50:27;;;;;;;51.10;23.13;;;5.90;67.60;;;;;;5041375;28;20045;-49
2023/01/27 00:52:57;;;;;;;55.58;23.10;;;5.90;67.60;;;;;;5041156;28;20049;-51
2023/01/27 00:55:25;;;;;;;65.22;24.70;;;5.90;67.70;;;;;;5038993;28;20057;-49
2023/01/27 00:57:52;;;;;;;50.38;22.23;;;5.90;67.60;;;;;;5038750;28;20049;-46
2023/01/27 01:00:19;;;;;;;53.50;24.15;;;5.90;67.50;;;;;;5038200;28;20061;-50
2023/01/27 01:02:47;;;;;;;52.47;21.75;;;6.00;67.60;;;;;;5042676;28;20052;-50
2023/01/27 01:05:14;;;;;;;59.75;25.05;;;6.00;67.50;;;;;;5041977;28;20069;-49
2023/01/27 01:07:41;;;;;;;47.97;22.08;;;6.00;67.40;;;;;;5041010;28;20501;-51
2023/01/27 01:10:11;;;;;;;50.75;23.13;;;6.00;67.30;;;;;;5040859;28;20064;-51
2023/01/27 01:12:38;;;;;;;50.33;22.95;;;6.00;67.30;;;;;;5036479;28;20049;-48
2023/01/27 01:15:06;;;;;;;56.05;22.08;;;6.00;67.30;;;;;;5042216;28;20056;-49
2023/01/27 01:17:33;;;;;;;48.40;22.02;;;6.00;67.20;;;;;;5040901;28;20532;-48
2023/01/27 01:20:02;;;;;;;50.55;20.85;;;6.00;67.20;;;;;;5042065;28;20128;-49
2023/01/27 01:22:29;;;;;;;46.58;20.70;;;6.10;67.20;;;;;;5041987;28;20049;-51
2023/01/27 01:24:56;;;;;;;50.30;21.98;;;6.10;67.20;;;;;;5040389;28;20048;-48
2023/01/27 01:27:25;;;;;;;47.72;21.27;;;6.10;67.10;;;;;;5036397;28;20056;-48
2023/01/27 01:29:52;;;;;;;52.00;22.27;;;6.10;67.00;;;;;;5041924;28;20052;-47
2023/01/27 01:32:19;;;;;;;42.42;20.25;;;6.10;67.00;;;;;;5041544;28;20067;-51
2023/01/27 01:34:46;;;;;;;48.67;21.65;;;6.10;67.00;;;;;;5041216;28;20057;-50
2023/01/27 01:37:14;;;;;;;50.60;21.52;;;6.10;67.00;;;;;;5041789;28;20065;-50
2023/01/27 01:39:41;;;;;;;46.70;20.80;;;6.10;67.00;;;;;;5040885;28;20048;-48
2023/01/27 01:42:08;;;;;;;54.10;22.63;;;6.10;67.00;;;;;;5036006;28;20689;-48
2023/01/27 01:44:37;;;;;;;55.75;23.50;;;6.10;66.90;;;;;;5041742;28;20051;-51
2023/01/27 01:47:04;;;;;;;54.20;22.85;;;6.10;66.80;;;;;;5041843;28;20063;-51
2023/01/27 01:49:34;;;;;;;52.58;22.08;;;6.10;67.40;;;;;;5039300;28;20052;-49
2023/01/27 01:52:06;;;;;;;57.97;22.80;;;6.00;66.60;;;;;;5041155;28;20063;-50
2023/01/27 01:54:35;;;;;;;65.28;24.60;;;6.00;66.50;;;;;;5039797;28;20056;-48
2023/01/27 01:57:08;;;;;;;53.55;22.50;;;6.00;66.50;;;;;;5038006;28;20064;-50
2023/01/27 01:59:42;;;;;;;55.28;22.52;;;6.00;66.50;;;;;;5040770;28;20053;-50
2023/01/27 02:02:13;;;;;;;50.95;22.73;;;5.90;66.50;;;;;;5038997;28;20052;-54
2023/01/27 02:04:44;;;;;;;59.45;24.30;;;5.90;66.80;;;;;;5035311;28;20473;-48
2023/01/27 02:07:16;;;;;;;49.95;23.15;;;5.80;66.90;;;;;;5041521;28;21598;-54
2023/01/27 02:09:44;;;;;;;47.63;22.08;;;5.80;67.00;;;;;;5039206;28;20056;-50
2023/01/27 02:12:11;;;;;;;47.50;20.90;;;5.80;67.90;;;;;;5039406;28;20608;-50
2023/01/27 02:14:41;;;;;;;52.75;22.63;;;5.80;67.30;;;;;;5035804;28;20263;-53
2023/01/27 02:17:09;;;;;;;47.30;21.13;;;5.70;67.40;;;;;;5040538;28;20060;-49
2023/01/27 02:19:46;;;;;;;53.92;21.75;;;5.70;67.50;;;;;;5039182;28;20041;-52
2023/01/27 02:22:24;;;;;;;53.67;22.77;;;5.70;67.60;;;;;;5034190;28;20056;-53
2023/01/27 02:25:00;;;;;;;49.90;22.75;;;5.80;67.70;;;;;;5039718;28;20061;-51
2023/01/27 02:27:29;;;;;;;66.65;23.77;;;5.70;67.50;;;;;;5035097;28;20048;-51
2023/01/27 02:29:56;;;;;;;52.05;22.00;;;5.70;67.40;;;;;;5038626;28;20512;-51
2023/01/27 02:32:25;;;;;;;50.95;21.58;;;5.70;67.40;;;;;;5040848;28;20053;-52
2023/01/27 02:34:53;;;;;;;40.67;21.27;;;5.70;67.60;;;;;;5044261;28;20504;-52
2023/01/27 02:37:21;;;;;;;55.80;23.92;;;5.70;67.60;;;;;;5040274;28;20053;-48
2023/01/27 02:39:51;;;;;;;49.42;23.15;;;5.70;67.70;;;;;;5033484;28;20690;-53
2023/01/27 02:42:19;;;;;;;51.10;22.52;;;5.70;67.70;;;;;;5043496;28;20627;-49
2023/01/27 02:44:48;;;;;;;55.47;23.25;;;5.70;67.70;;;;;;5043930;28;20492;-51
2023/01/27 02:47:15;;;;;;;55.58;22.10;;;5.70;67.70;;;;;;5044604;28;20394;-50
2023/01/27 02:49:42;;;;;;;65.43;22.55;;;5.70;67.60;;;;;;5042702;28;20049;-50
2023/01/27 02:52:10;;;;;;;54.08;23.02;;;5.60;67.50;;;;;;5043840;28;20061;-49
2023/01/27 02:54:37;;;;;;;48.75;21.98;;;5.60;67.50;;;;;;5040762;28;20053;-50
2023/01/27 02:57:04;;;;;;;44.28;20.20;;;5.60;67.50;;;;;;5041509;28;20075;-48
2023/01/27 02:59:31;;;;;;;44.10;20.65;;;5.60;67.40;;;;;;5041454;28;20528;-50
2023/01/27 03:02:00;;;;;;;55.08;21.65;;;5.60;67.50;;;;;;5044330;28;20057;-51
2023/01/27 03:04:27;;;;;;;44.72;21.05;;;5.60;67.50;;;;;;5044204;28;20049;-50
2023/01/27 03:06:54;;;;;;;50.70;22.02;;;5.60;67.40;;;;;;5044207;28;21190;-52
2023/01/27 03:09:21;;;;;;;49.50;21.63;;;5.60;67.40;;;;;;5041334;28;20060;-50
2023/01/27 03:20:05;;;;;;;53.10;21.85;;;5.40;67.60;;;;;;5048498;28;20083;-48
2023/01/27 03:22:32;;;;;;;50.35;21.80;;;5.40;67.70;;;;;;5042427;28;20404;-50
2023/01/27 03:24:59;;;;;;;56.75;22.42;;;5.40;67.90;;;;;;5037532;28;20056;-48
2023/01/27 03:27:26;;;;;;;54.03;21.35;;;5.30;68.00;;;;;;5044413;28;20492;-50
2023/01/27 03:29:56;;;;;;;42.53;19.45;;;5.30;68.10;;;;;;5044171;28;20068;-48
2023/01/27 03:32:27;;;;;;;45.15;20.65;;;5.30;68.30;;;;;;5042657;28;20049;-50
2023/01/27 03:34:56;;;;;;;43.80;18.83;;;5.20;68.30;;;;;;5043064;28;20048;-47
2023/01/27 03:48:27;;;;;;;45.15;18.13;;;5.20;68.60;;;;;;5049064;28;20055;-50
2023/01/27 03:50:57;;;;;;;38.83;17.45;;;5.20;68.70;;;;;;5041432;28;20477;-51
2023/01/27 03:53:24;;;;;;;37.10;16.55;;;5.20;68.60;;;;;;5044128;28;21149;-50
2023/01/27 03:55:52;;;;;;;38.38;16.80;;;5.20;68.70;;;;;;5038233;28;20425;-49
2023/01/27 03:58:21;;;;;;;41.60;16.98;;;5.20;68.60;;;;;;5043583;28;20060;-49
2023/01/27 04:00:51;;;;;;;33.47;15.85;;;5.20;68.60;;;;;;5039230;28;20049;-50
2023/01/27 04:08:54;;;;;;;31.35;15.20;;;5.30;68.20;;;;;;5046403;28;20067;-52
2023/01/27 04:14:07;;;;;;;32.78;15.95;;;5.30;68.10;;;;;;5041152;28;20056;-52
2023/01/27 04:16:36;;;;;;;39.25;16.25;;;5.30;68.00;;;;;;5041030;28;20049;-51
2023/01/27 04:19:04;;;;;;;37.85;15.25;;;5.30;67.90;;;;;;5042298;28;20053;-49
2023/01/27 04:21:33;;;;;;;26.25;13.07;;;5.30;67.80;;;;;;5042347;28;20065;-52
2023/01/27 04:24:01;;;;;;;29.92;12.75;;;5.30;67.80;;;;;;5038436;28;20525;-49
2023/01/27 04:26:32;;;;;;;25.05;13.07;;;5.30;67.70;;;;;;5040561;28;20045;-51
2023/01/27 04:28:59;;;;;;;27.23;12.13;;;5.30;67.70;;;;;;5042233;28;20052;-50
2023/01/27 04:31:27;;;;;;;24.88;11.85;;;5.30;67.70;;;;;;5041237;28;20496;-49
2023/01/27 04:33:54;;;;;;;21.25;12.38;;;5.30;67.50;;;;;;5041360;28;20053;-50
2023/01/27 04:36:21;;;;;;;22.27;11.32;;;5.40;67.50;;;;;;5041735;28;20057;-51
2023/01/27 04:38:50;;;;;;;22.98;12.23;;;5.40;67.50;;;;;;5038099;28;20061;-50
2023/01/27 04:41:17;;;;;;;24.15;11.48;;;5.40;67.30;;;;;;5037852;28;20049;-46
2023/01/27 04:43:44;;;;;;;22.30;12.82;;;5.50;67.20;;;;;;5041238;28;20426;-54
2023/01/27 04:46:11;;;;;;;22.73;11.45;;;5.50;67.10;;;;;;5041496;28;20064;-50
2023/01/27 04:48:38;;;;;;;20.50;11.15;;;5.50;67.10;;;;;;5041206;28;20040;-52
2023/01/27 04:51:06;;;;;;;21.55;10.45;;;5.50;67.20;;;;;;5040249;28;20048;-49
2023/01/27 04:53:33;;;;;;;18.65;10.63;;;5.50;67.60;;;;;;5038564;28;20517;-47
2023/01/27 04:56:05;;;;;;;21.58;10.70;;;5.50;66.90;;;;;;5039050;28;20057;-54
2023/01/27 04:58:33;;;;;;;18.13;10.10;;;5.60;66.70;;;;;;5040040;28;20052;-51
2023/01/27 05:01:00;;;;;;;16.08;9.05;;;5.60;66.60;;;;;;5039333;28;20053;-50
2023/01/27 05:03:27;;;;;;;14.25;8.90;;;5.60;66.50;;;;;;5040949;28;20124;-48
2023/01/27 05:05:54;;;;;;;15.73;8.85;;;5.60;66.40;;;;;;5040118;28;20404;-52
2023/01/27 05:08:22;;;;;;;15.73;9.13;;;5.60;66.40;;;;;;5039827;28;20061;-49
2023/01/27 05:10:51;;;;;;;16.15;9.32;;;5.60;66.30;;;;;;5039717;28;20045;-52
2023/01/27 05:13:19;;;;;;;18.65;8.73;;;5.60;66.30;;;;;;5038787;28;20061;-51
2023/01/27 05:15:47;;;;;;;17.23;9.15;;;5.60;66.30;;;;;;5037202;28;20298;-50
2023/01/27 05:18:14;;;;;;;17.90;9.98;;;5.60;66.30;;;;;;5035533;28;20595;-49
2023/01/27 05:20:41;;;;;;;15.95;9.27;;;5.60;66.20;;;;;;5041013;28;20060;-47
2023/01/27 05:25:53;;;;;;;19.10;9.73;;;5.60;66.20;;;;;;5046232;28;20064;-50
2023/01/27 05:28:22;;;;;;;15.85;8.68;;;5.70;66.30;;;;;;5037227;28;20579;-49
2023/01/27 05:30:49;;;;;;;14.55;8.63;;;5.70;66.20;;;;;;5042083;28;20049;-50
2023/01/27 05:33:16;;;;;;;17.77;8.95;;;5.70;66.20;;;;;;5038727;28;20056;-52
2023/01/27 05:35:43;;;;;;;18.27;9.57;;;5.70;66.20;;;;;;5040395;28;21065;-49
2023/01/27 05:38:11;;;;;;;14.77;8.75;;;5.70;66.00;;;;;;5037751;28;20045;-50
2023/01/27 05:40:38;;;;;;;14.25;8.73;;;5.70;65.90;;;;;;5039487;28;20045;-52
2023/01/27 05:43:05;;;;;;;14.98;8.23;;;5.70;65.90;;;;;;5040587;28;20052;-51
2023/01/27 05:45:34;;;;;;;14.18;8.93;;;5.70;65.90;;;;;;5040110;28;20123;-50
2023/01/27 05:48:01;;;;;;;18.00;9.75;;;5.70;65.90;;;;;;5035147;28;20067;-53
2023/01/27 05:50:28;;;;;;;19.17;8.75;;;5.70;65.90;;;;;;5035416;28;20056;-49
2023/01/27 05:52:55;;;;;;;15.80;9.05;;;5.70;66.00;;;;;;5037499;28;20584;-52
2023/01/27 05:55:22;;;;;;;13.73;8.30;;;5.70;65.80;;;;;;5035543;28;20823;-49
2023/01/27 05:57:49;;;;;;;14.73;8.73;;;5.80;65.80;;;;;;5041501;28;20060;-49
2023/01/27 06:00:18;;;;;;;14.15;8.30;;;5.80;65.80;;;;;;5039628;28;20062;-51
2023/01/27 06:02:46;;;;;;;18.42;9.68;;;5.80;65.70;;;;;;5040138;28;20057;-53
2023/01/27 06:05:14;;;;;;;17.58;9.38;;;5.80;65.60;;;;;;5040417;28;20138;-50
2023/01/27 06:07:42;;;;;;;15.48;9.25;;;5.80;65.40;;;;;;5037570;28;20532;-51
2023/01/27 06:10:11;;;;;;;13.50;7.95;;;5.80;65.30;;;;;;5039612;28;20049;-49
2023/01/27 06:12:38;;;;;;;14.35;8.45;;;5.80;65.40;;;;;;5040927;28;20053;-50
2023/01/27 06:15:06;;;;;;;16.35;7.97;;;5.80;65.50;;;;;;5038791;28;20429;-51
2023/01/27 06:17:33;;;;;;;15.75;8.70;;;5.80;65.50;;;;;;5036541;28;20053;-50
2023/01/27 06:20:02;;;;;;;15.57;8.63;;;5.80;65.40;;;;;;5037390;28;20127;-51
2023/01/27 06:22:29;;;;;;;15.98;8.93;;;5.80;65.30;;;;;;5039721;28;20493;-49
2023/01/27 06:24:56;;;;;;;14.05;8.75;;;5.80;65.30;;;;;;5039853;28;20061;-51
2023/01/27 06:27:23;;;;;;;16.27;8.60;;;5.80;65.30;;;;;;5040189;28;20082;-50
2023/01/27 06:29:50;;;;;;;13.73;8.25;;;5.90;65.40;;;;;;5037076;28;20057;-49
2023/01/27 06:32:18;;;;;;;20.67;8.60;;;5.80;65.30;;;;;;5039465;28;20521;-49
2023/01/27 06:34:45;;;;;;;15.48;7.95;;;5.90;65.40;;;;;;5037974;28;20052;-53
2023/01/27 06:37:13;;;;;;;16.55;8.70;;;5.80;65.30;;;;;;5038126;28;20052;-50
2023/01/27 06:39:40;;;;;;;13.15;8.27;;;5.90;65.30;;;;;;5039180;28;20064;-50
2023/01/27 06:42:08;;;;;;;16.17;9.15;;;5.90;65.20;;;;;;5040623;28;20057;-51
2023/01/27 06:44:35;;;;;;;17.63;9.20;;;5.90;65.20;;;;;;5042465;28;20379;-50
2023/01/27 06:47:02;;;;;;;17.08;9.48;;;5.90;65.20;;;;;;5041518;28;20049;-53
2023/01/27 06:49:30;;;;;;;15.93;9.18;;;5.90;65.20;;;;;;5039491;28;20053;-50
2023/01/27 06:51:57;;;;;;;16.95;9.07;;;5.90;65.10;;;;;;5040130;28;20056;-51
2023/01/27 06:54:26;;;;;;;16.40;8.98;;;5.90;65.20;;;;;;5039087;28;20052;-52
2023/01/27 06:56:53;;;;;;;15.23;8.80;;;5.80;65.20;;;;;;5040108;28;20053;-52
2023/01/27 06:59:20;;;;;;;18.95;9.30;;;5.90;65.30;;;;;;5039803;28;20531;-51
2023/01/27 07:01:48;;;;;;;15.82;9.13;;;5.90;65.40;;;;;;5038866;28;20409;-51
2023/01/27 07:04:15;;;;;;;20.95;10.85;;;5.90;65.40;;;;;;5040024;28;21017;-51
2023/01/27 07:06:42;;;;;;;20.63;10.70;;;5.90;65.40;;;;;;5039995;28;20053;-52
2023/01/27 07:09:10;;;;;;;18.45;9.60;;;5.90;65.20;;;;;;5040150;28;20053;-49
2023/01/27 07:11:39;;;;;;;21.40;10.52;;;5.90;65.20;;;;;;5040107;28;20416;-51
2023/01/27 07:14:06;;;;;;;20.23;10.30;;;5.90;65.20;;;;;;5037980;28;20048;-48
2023/01/27 07:16:33;;;;;;;18.08;10.05;;;5.90;65.20;;;;;;5034010;28;20139;-50
2023/01/27 07:19:00;;;;;;;19.88;11.35;;;5.90;65.20;;;;;;5039916;28;20056;-53
2023/01/27 07:21:28;;;;;;;21.30;10.45;;;5.90;65.20;;;;;;5044112;28;20769;-51
2023/01/27 07:23:55;;;;;;;20.27;10.60;;;5.90;65.20;;;;;;5042306;28;20057;-52
2023/01/27 07:26:22;;;;;;;18.92;10.25;;;5.90;65.10;;;;;;5044789;28;20056;-50
2023/01/27 07:28:51;;;;;;;25.77;11.68;;;5.90;65.20;;;;;;5041684;28;20064;-48
2023/01/27 07:31:18;;;;;;;24.17;10.50;;;5.90;65.10;;;;;;5042115;28;20057;-49
2023/01/27 07:33:45;;;;;;;22.70;11.90;;;5.90;65.20;;;;;;5041954;28;20056;-50
2023/01/27 07:36:12;;;;;;;22.00;10.98;;;5.90;65.30;;;;;;5038947;28;20485;-46
2023/01/27 07:38:43;;;;;;;24.88;12.07;;;5.90;65.40;;;;;;5048346;28;20075;-49
2023/01/27 07:41:27;;;;;;;22.40;11.88;;;5.90;65.40;;;;;;5049273;28;20049;-50
2023/01/27 07:43:57;;;;;;;16.17;9.45;;;5.90;65.40;;;;;;5049373;28;20063;-49
2023/01/27 07:46:26;;;;;;;17.15;9.70;;;6.00;65.50;;;;;;5049604;28;20446;-48
2023/01/27 07:49:39;;;;;;;19.20;9.43;;;6.00;65.50;;;;;;5049551;28;20077;-53
2023/01/27 07:52:06;;;;;;;16.27;9.27;;;6.00;65.50;;;;;;4973916;28;20407;-51
2023/01/27 07:54:33;;;;;;;14.20;8.77;;;6.00;65.40;;;;;;5039753;28;20053;-48
2023/01/27 07:57:01;;;;;;;20.65;9.57;;;6.00;65.30;;;;;;5039946;28;20057;-51
2023/01/27 07:59:29;;;;;;;17.35;9.65;;;6.00;65.30;;;;;;5042348;28;20079;-52
2023/01/27 08:01:57;;;;;;;17.17;9.57;;;6.00;65.20;;;;;;5041736;28;20041;-50
2023/01/27 08:04:24;;;;;;;15.25;9.10;;;6.00;65.00;;;;;;5043243;28;20060;-49
2023/01/27 08:06:51;;;;;;;15.73;9.82;;;6.00;65.00;;;;;;5042425;28;20068;-51
2023/01/27 08:09:18;;;;;;;18.65;9.68;;;6.10;65.30;;;;;;5035171;28;20139;-52
2023/01/27 08:11:45;;;;;;;15.35;10.05;;;6.10;65.40;;;;;;5040350;28;20498;-52
2023/01/27 08:14:13;;;;;;;17.33;9.63;;;6.10;65.40;;;;;;5040554;28;20049;-52
2023/01/27 08:16:41;;;;;;;13.52;7.70;;;6.10;65.50;;;;;;5037335;28;20591;-50
2023/01/27 08:19:08;;;;;;;16.08;8.70;;;6.10;65.40;;;;;;5044135;28;20068;-50
2023/01/27 08:21:36;;;;;;;13.48;8.77;;;6.10;65.20;;;;;;5040963;28;20049;-49
2023/01/27 08:24:03;;;;;;;14.75;8.02;;;6.10;65.10;;;;;;5042427;28;20416;-53
2023/01/27 08:26:30;;;;;;;12.73;7.25;;;6.10;65.00;;;;;;5039744;28;20076;-51
2023/01/27 08:28:57;;;;;;;13.30;8.00;;;6.10;65.20;;;;;;5042542;28;20052;-51
2023/01/27 08:31:25;;;;;;;11.77;7.25;;;6.20;65.30;;;;;;5041472;28;20049;-48
2023/01/27 08:33:54;;;;;;;12.43;7.35;;;6.20;65.20;;;;;;5042576;28;20049;-52
2023/01/27 08:36:23;;;;;;;11.85;7.03;;;6.20;65.20;;;;;;5039419;28;20064;-52
2023/01/27 08:38:51;;;;;;;11.15;6.85;;;6.20;65.30;;;;;;5040183;28;21616;-51
2023/01/27 08:41:21;;;;;;;12.27;7.85;;;6.20;65.40;;;;;;5041041;28;20497;-48
2023/01/27 08:43:49;;;;;;;10.52;6.95;;;6.20;65.50;;;;;;5039907;28;20080;-50
2023/01/27 08:46:17;;;;;;;11.55;6.97;;;6.30;65.60;;;;;;5038651;28;20049;-52
2023/01/27 08:48:44;;;;;;;14.23;7.38;;;6.30;65.70;;;;;;5042672;28;20059;-51
2023/01/27 08:51:14;;;;;;;11.35;7.07;;;6.30;65.70;;;;;;5041451;28;20057;-49
2023/01/27 08:53:41;;;;;;;12.23;7.25;;;6.40;65.70;;;;;;5040661;28;20534;-50
2023/01/27 08:56:11;;;;;;;14.13;8.57;;;6.40;65.80;;;;;;5040805;28;20064;-50
2023/01/27 08:58:38;;;;;;;14.95;7.95;;;6.40;65.70;;;;;;5039262;28;20052;-51
2023/01/27 09:01:07;;;;;;;12.55;7.38;;;6.50;65.70;;;;;;5041540;28;20049;-49
2023/01/27 09:03:35;;;;;;;13.20;8.05;;;6.50;65.60;;;;;;5040373;28;20059;-51
2023/01/27 09:06:03;;;;;;;13.88;7.82;;;6.60;65.70;;;;;;5042216;28;20057;-49
2023/01/27 09:08:32;;;;;;;15.50;8.40;;;6.60;65.40;;;;;;5041014;28;20068;-49
2023/01/27 09:10:59;;;;;;;13.73;8.10;;;6.60;65.30;;;;;;5038436;28;20499;-49
2023/01/27 09:13:27;;;;;;;12.55;8.10;;;6.60;65.30;;;;;;5039261;28;20048;-51
2023/01/27 09:15:55;;;;;;;14.50;8.10;;;6.60;65.10;;;;;;5041500;28;20059;-51
2023/01/27 09:18:22;;;;;;;11.90;7.15;;;6.60;65.10;;;;;;5040308;28;20049;-49
2023/01/27 09:20:49;;;;;;;9.63;6.35;;;6.70;65.20;;;;;;5038660;28;20235;-50
2023/01/27 09:23:17;;;;;;;13.35;6.43;;;6.60;64.90;;;;;;5041070;28;20516;-48
2023/01/27 09:25:45;;;;;;;10.95;6.68;;;6.70;65.00;;;;;;5037790;28;20052;-51
2023/01/27 09:28:16;;;;;;;10.70;6.25;;;6.70;65.10;;;;;;5042022;28;20053;-50
2023/01/27 09:30:45;;;;;;;10.18;6.30;;;6.70;65.20;;;;;;5041576;28;20079;-51
2023/01/27 09:33:13;;;;;;;9.18;6.25;;;6.70;65.10;;;;;;5041071;28;20057;-50
2023/01/27 09:35:46;;;;;;;8.63;5.93;;;6.70;65.10;;;;;;5039982;28;20485;-49
2023/01/27 09:38:19;;;;;;;10.30;6.13;;;6.70;65.10;;;;;;5041541;28;20063;-49
2023/01/27 09:41:04;;;;;;;9.98;6.68;;;6.70;65.00;;;;;;5039572;28;20079;-52
2023/01/27 09:43:48;;;;;;;10.43;6.07;;;6.80;64.80;;;;;;5040625;28;20401;-51
2023/01/27 09:46:36;;;;;;;10.18;5.97;;;6.80;64.70;;;;;;5039955;28;20059;-49
2023/01/27 09:49:26;;;;;;;8.43;5.40;;;6.80;64.90;;;;;;5040546;28;20064;-52
2023/01/27 09:52:08;;;;;;;11.25;6.18;;;6.80;64.90;;;;;;5038707;28;20504;-51
2023/01/27 09:54:51;;;;;;;10.88;6.30;;;6.80;64.90;;;;;;5038998;28;20060;-52
2023/01/27 09:57:31;;;;;;;9.82;5.70;;;6.80;64.90;;;;;;5041255;28;20053;-48
2023/01/27 10:00:17;;;;;;;10.48;5.72;;;6.80;64.40;;;;;;5039359;28;20071;-51
2023/01/27 10:03:07;;;;;;;7.80;5.47;;;6.80;64.10;;;;;;5039310;28;20049;-52
2023/01/27 10:06:04;;;;;;;9.13;5.63;;;6.80;64.20;;;;;;5039611;28;20063;-50
2023/01/27 10:09:00;;;;;;;8.00;5.30;;;6.80;64.50;;;;;;5039530;28;20053;-48
2023/01/27 10:11:35;;;;;;;10.73;5.57;;;6.80;64.40;;;;;;5036657;28;20053;-49
2023/01/27 10:14:18;;;;;;;10.32;5.57;;;6.80;64.40;;;;;;5039337;28;20052;-50
2023/01/27 10:17:05;;;;;;;9.27;5.75;;;6.80;64.50;;;;;;5039564;28;20069;-48
2023/01/27 10:19:51;;;;;;;7.53;4.78;;;6.80;64.60;;;;;;5039385;28;20064;-49
2023/01/27 10:22:30;;;;;;;9.45;5.30;;;6.80;64.70;;;;;;5039212;28;20061;-51
2023/01/27 10:25:12;;;;;;;7.82;5.03;;;6.80;64.70;;;;;;5037399;28;20063;-49
2023/01/27 10:27:46;;;;;;;7.03;3.97;;;6.80;64.70;;;;;;5040494;28;20045;-50
2023/01/27 10:30:21;;;;;;;5.40;3.53;;;6.90;64.70;;;;;;5036304;28;20056;-51
2023/01/27 10:32:57;;;;;;;5.95;4.00;;;6.90;64.70;;;;;;5038678;28;20048;-51
2023/01/27 10:35:31;;;;;;;6.30;4.00;;;7.00;64.80;;;;;;5037829;28;20044;-49
2023/01/27 10:38:08;;;;;;;6.78;4.10;;;7.00;64.80;;;;;;5039280;28;20053;-48
2023/01/27 10:40:43;;;;;;;5.47;3.35;;;7.10;64.50;;;;;;5034452;28;20053;-49
2023/01/27 10:43:17;;;;;;;5.97;2.78;;;7.10;63.80;;;;;;5040860;28;20511;-54
2023/01/27 10:45:50;;;;;;;;;;;7.10;63.80;;;;;;5037653;28;20048;-50
2023/01/27 10:48:28;;;;;;;2.78;1.63;;;7.20;63.90;;;;;;5040777;28;19921;-50
2023/01/27 10:51:00;;;;;;;3.80;2.28;;;7.20;63.50;;;;;;5040762;28;20440;-51
2023/01/27 10:53:33;;;;;;;4.47;2.30;;;7.20;63.30;;;;;;5039434;28;20041;-48
2023/01/27 10:56:07;;;;;;;2.75;1.90;;;7.30;63.20;;;;;;5042403;28;20412;-52
2023/01/27 10:58:44;;;;;;;2.73;1.43;;;7.30;63.30;;;;;;5043575;28;20057;-50
2023/01/27 11:01:16;;;;;;;1.52;1.15;;;7.30;62.90;;;;;;5044744;28;20510;-50
2023/01/27 11:03:47;;;;;;;1.08;0.75;;;7.40;62.60;;;;;;5044038;28;20053;-50
2023/01/27 11:06:17;;;;;;;1.13;0.65;;;7.40;62.70;;;;;;5044551;28;20523;-52
2023/01/27 11:08:47;;;;;;;1.15;0.60;;;7.40;62.90;;;;;;5042794;28;20052;-53
2023/01/27 11:14:11;;;;;;;0.77;0.55;;;7.50;62.80;;;;;;5047928;28;20056;-52
2023/01/27 11:16:45;;;;;;;0.68;0.50;;;7.60;62.60;;;;;;5046206;28;20067;-51
2023/01/27 11:19:22;;;;;;;0.52;0.50;;;7.60;62.20;;;;;;5044279;28;20057;-53
2023/01/27 11:21:51;;;;;;;0.77;0.70;;;7.70;61.20;;;;;;5046023;28;20060;-51
2023/01/27 11:24:24;;;;;;;0.70;0.52;;;7.70;61.70;;;;;;5036728;28;20064;-54
2023/01/27 11:27:03;;;;;;;0.82;0.50;;;7.70;61.10;;;;;;5043116;28;20057;-54
2023/01/27 11:29:37;;;;;;;0.43;0.40;;;7.70;61.10;;;;;;5042972;28;20075;-49
2023/01/27 11:32:16;;;;;;;0.40;0.40;;;7.80;61.30;;;;;;5043815;28;20500;-53
2023/01/27 11:34:49;;;;;;;1.33;0.82;;;7.80;61.30;;;;;;5041091;28;20462;-52
2023/01/27 11:37:20;;;;;;;0.80;0.68;;;7.90;61.30;;;;;;5044943;28;20061;-52
2023/01/27 11:39:48;;;;;;;0.65;0.60;;;7.90;60.20;;;;;;5041487;28;20053;-52
2023/01/27 11:42:16;;;;;;;1.05;0.70;;;7.90;60.30;;;;;;5045574;28;20057;-52
2023/01/27 11:44:45;;;;;;;0.70;0.63;;;7.90;60.20;;;;;;5045463;28;20053;-51
2023/01/27 11:47:23;;;;;;;0.43;0.40;;;7.90;60.20;;;;;;5044646;28;20496;-50
2023/01/27 11:49:52;;;;;;;1.25;0.70;;;7.90;60.00;;;;;;5043448;28;20068;-50
2023/01/27 11:52:25;;;;;;;0.77;0.55;;;8.00;59.80;;;;;;5045167;28;20061;-53
2023/01/27 11:54:59;;;;;;;0.55;0.55;;;7.90;59.70;;;;;;5043759;28;20068;-52
2023/01/27 11:57:28;;;;;;;1.00;0.70;;;8.00;59.70;;;;;;5043505;28;20053;-49
2023/01/27 12:00:00;;;;;;;0.90;0.80;;;8.00;59.60;;;;;;5043806;28;20505;-52
2023/01/27 12:02:36;;;;;;;0.60;0.60;;;8.00;59.40;;;;;;5045603;28;20064;-52
2023/01/27 12:05:08;;;;;;;1.25;0.52;;;8.00;59.40;;;;;;5042807;28;20497;-53
2023/01/27 12:07:54;;;;;;;0.90;0.60;;;8.00;59.60;;;;;;5045100;28;20052;-51
2023/01/27 12:10:29;;;;;;;0.98;0.60;;;8.10;59.60;;;;;;5043356;28;20057;-51
2023/01/27 12:12:57;;;;;;;1.48;0.65;;;8.10;60.30;;;;;;5042137;28;20501;-52
2023/01/27 12:15:27;;;;;;;1.00;0.77;;;8.10;59.40;;;;;;5044675;28;20102;-51
2023/01/27 12:17:58;;;;;;;1.77;1.00;;;8.10;59.50;;;;;;5044643;28;20055;-52
2023/01/27 12:20:33;;;;;;;1.17;0.85;;;8.10;59.60;;;;;;5042783;28;20057;-52
2023/01/27 12:23:04;;;;;;;1.27;0.70;;;8.10;59.30;;;;;;5044072;28;20500;-50
2023/01/27 12:25:43;;;;;;;0.70;0.70;;;8.20;59.30;;;;;;5043490;28;20057;-53
2023/01/27 12:28:24;;;;;;;1.10;0.93;;;8.20;58.90;;;;;;5045081;28;20417;-54
2023/01/27 12:30:52;;;;;;;1.10;1.00;;;8.20;58.50;;;;;;5042730;28;20503;-51
2023/01/27 12:33:26;;;;;;;1.27;1.00;;;8.20;58.90;;;;;;5044334;28;20060;-50
2023/01/27 12:35:58;;;;;;;1.52;1.00;;;8.20;59.00;;;;;;5042901;28;20049;-52
2023/01/27 12:38:29;;;;;;;3.03;1.02;;;8.20;58.50;;;;;;5043264;28;20940;-54
2023/01/27 12:40:59;;;;;;;0.90;0.80;;;8.20;58.50;;;;;;5042861;28;20060;-52
2023/01/27 12:43:27;;;;;;;2.10;1.45;;;8.20;58.90;;;;;;5044088;28;20060;-54
2023/01/27 12:46:06;;;;;;;1.25;1.10;;;8.20;58.80;;;;;;5043737;28;20409;-52
2023/01/27 12:48:46;;;;;;;1.20;1.10;;;8.20;58.60;;;;;;5042741;28;20412;-54
2023/01/27 12:51:16;;;;;;;1.38;1.02;;;8.20;58.50;;;;;;5042116;28;20425;-52
2023/01/27 12:53:43;;;;;;;1.20;1.10;;;8.20;58.60;;;;;;5043520;28;20107;-49
2023/01/27 12:56:14;;;;;;;1.35;0.95;;;8.20;58.70;;;;;;5044081;28;20048;-51
2023/01/27 12:58:43;;;;;;;0.93;0.80;;;8.30;58.30;;;;;;5042770;28;20053;-54
2023/01/27 13:01:27;;;;;;;1.38;1.23;;;8.30;58.20;;;;;;5043360;28;20057;-52
2023/01/27 13:03:58;;;;;;;1.20;1.10;;;8.30;58.00;;;;;;5042082;28;20057;-53
2023/01/27 13:06:38;;;;;;;1.52;1.25;;;8.30;57.90;;;;;;5043761;28;20492;-51
2023/01/27 13:09:05;;;;;;;1.40;1.10;;;8.30;57.80;;;;;;5040935;28;20051;-53
2023/01/27 13:11:39;;;;;;;1.10;0.93;;;8.30;58.20;;;;;;5040977;28;20064;-54
2023/01/27 13:14:16;;;;;;;1.25;1.10;;;8.30;58.20;;;;;;5042479;28;20053;-54
2023/01/27 13:16:51;;;;;;;1.15;1.00;;;8.30;58.30;;;;;;5043400;28;20052;-56
2023/01/27 13:19:19;;;;;;;;;;;8.40;58.40;;;;;;5041795;28;20053;-52
2023/01/27 13:21:49;;;;;;;1.38;0.90;;;8.40;58.50;;;;;;5043505;28;20431;-51
2023/01/27 13:24:20;;;;;;;1.50;1.25;;;8.50;58.30;;;;;;5039493;28;20115;-53
2023/01/27 13:26:50;;;;;;;1.55;0.80;;;8.50;57.90;;;;;;5043419;28;20052;-53
2023/01/27 13:29:25;;;;;;;1.65;1.00;;;8.50;58.00;;;;;;5042678;28;20057;-53
2023/01/27 13:31:57;;;;;;;1.15;0.95;;;8.50;57.70;;;;;;5043963;28;20065;-52
2023/01/27 13:34:33;;;;;;;1.05;0.88;;;8.50;57.70;;;;;;5040892;28;20045;-52
2023/01/27 13:37:07;;;;;;;0.80;0.70;;;8.60;57.70;;;;;;5043956;28;20053;-58
2023/01/27 13:39:47;;;;;;;0.85;0.63;;;8.60;57.70;;;;;;5042417;28;20509;-53
2023/01/27 13:42:20;;;;;;;0.70;0.63;;;8.60;57.40;;;;;;5043605;28;20052;-53
2023/01/27 13:44:51;;;;;;;0.77;0.55;;;8.60;57.40;;;;;;5039055;28;20049;-58